Urb Oasis Gdns, Puerto Rico
Current Conditions -  °F | °C
As of 8:56 PM on Sunday 21 Dec 2014 (Local Time) from TJSJ Reporting Station
Few Clouds Few Clouds  
Wind Chill: 78°   Ceiling: Unl
Heat Index: 80°   Visibility: 10mi
Dew Point: 66°   Wind: 5mph
Humidity: 66%   Direction: 100°E
Pressure: 30.08"   Gusts: NA
Location:  18.3866°N, 66.1135°W
Report Text: TJSJ 220056Z 10004KT 10SM FEW050 26/19 A3008 RMK AO2 SLP184 T02560189
Loading
Personal Weather Stations






























Interactive Weather Map New forecast layout! Learn more

10-Day Weather Forecast

Advertisements
Track Severe Weather on mobile